createdAt,value
2023-01-19T00:10:15.866Z,0.81
2023-01-19T00:40:15.692Z,1.07
2023-01-19T01:10:15.568Z,1.25
2023-01-19T01:40:15.452Z,1.24
2023-01-19T02:10:15.363Z,1.33
2023-01-19T02:40:15.326Z,1.34
2023-01-19T03:10:15.244Z,1.12
2023-01-19T03:40:15.136Z,1.13
2023-01-19T04:10:15.108Z,1.42
2023-01-19T04:33:34.702Z,1.1
2023-01-19T04:40:15.075Z,0.74
2023-01-19T04:49:34.641Z,0.41
2023-01-19T05:10:14.910Z,0.22
2023-01-19T05:40:14.813Z,0.28
2023-01-19T06:10:14.732Z,0.2
2023-01-19T06:40:14.654Z,0.14
2023-01-19T07:10:14.470Z,0.13
2023-01-19T07:40:14.429Z,0.24
2023-01-19T08:10:14.341Z,0.36
2023-01-19T08:40:14.199Z,0.56
2023-01-19T09:10:14.165Z,0.71
2023-01-19T09:40:14.031Z,0.9
2023-01-19T10:10:13.907Z,1.01
2023-01-19T10:40:13.745Z,1.08
2023-01-19T11:10:13.618Z,1.24
2023-01-19T11:40:14.419Z,1.31
2023-01-19T12:40:13.322Z,1.58
2023-01-19T13:10:13.189Z,1.78
2023-01-19T13:40:13.078Z,1.71
2023-01-19T14:10:12.985Z,1.78
2023-01-19T14:40:12.958Z,1.71
2023-01-19T15:10:12.857Z,1.67
2023-01-19T15:36:33.012Z,1.34
2023-01-19T15:40:12.792Z,1.3
2023-01-19T15:51:33.066Z,0.97
2023-01-19T16:10:12.787Z,0.86
2023-01-19T16:40:12.811Z,0.83
2023-01-19T17:10:12.908Z,0.74
2023-01-19T17:32:32.837Z,0.39
2023-01-19T17:40:12.673Z,0.28
2023-01-19T18:10:12.609Z,0.45
2023-01-19T18:40:12.432Z,0.47
2023-01-19T19:10:12.359Z,0.75
2023-01-19T19:40:12.255Z,0.8
2023-01-19T20:10:12.259Z,0.5
2023-01-19T21:10:11.741Z,0.8
2023-01-19T21:40:11.598Z,0.86
2023-01-19T22:10:11.442Z,1.05
2023-01-19T22:40:11.380Z,1.07
2023-01-19T23:10:11.308Z,1.12
2023-01-19T23:40:11.198Z,1.01
